Time;durP1;ratioP1;P1;durP2;ratioP2;P2;SDS_P1;SDS_P2;PMS_P1;PMS_P2;Temp;Humidity;BMP_temperature;BMP_pressure;BME280_temperature;BME280_humidity;BME280_pressure;Samples;Min_cycle;Max_cycle;Signal;HPM_P1;HPM_P2
2023/04/20 00:00:58;;;;;;;;;;;;;;;;;;5036583;28;20354;-28
2023/04/20 00:03:25;;;;;;;;;;;;;;;;;;5036346;28;19953;-28
2023/04/20 00:05:51;;;;;;;;;;;;;;;;;;5036659;28;19959;-29
2023/04/20 00:08:17;;;;;;;;;;;;;;;;;;5036583;28;20012;-25
2023/04/20 00:10:43;;;;;;;;;;;;;;;;;;5036566;28;19917;-30
2023/04/20 00:13:09;;;;;;;;;;;;;;;;;;5036339;28;20351;-25
2023/04/20 00:15:35;;;;;;;;;;;;;;;;;;5036384;28;19917;-30
2023/04/20 00:18:01;;;;;;;;;;;;;;;;;;5036621;28;19910;-24
2023/04/20 00:20:27;;;;;;;;;;;;;;;;;;5036285;28;19909;-26
2023/04/20 00:22:53;;;;;;;;;;;;;;;;;;5036109;28;20363;-28
2023/04/20 00:25:19;;;;;;;;;;;;;;;;;;5036505;28;19910;-27
2023/04/20 00:27:45;;;;;;;;;;;;;;;;;;5036221;28;19909;-27
2023/04/20 00:30:11;;;;;;;;;;;;;;;;;;5036366;28;20255;-31
2023/04/20 00:32:37;;;;;;;;;;;;;;;;;;5035971;28;20012;-27
2023/04/20 00:35:03;;;;;;;;;;;;;;;;;;5036031;28;20256;-26
2023/04/20 00:37:29;;;;;;;;;;;;;;;;;;5035993;28;20407;-27
2023/04/20 00:39:55;;;;;;;;;;;;;;;;;;5035987;28;19920;-29
2023/04/20 00:42:21;;;;;;;;;;;;;;;;;;5035797;28;19963;-28
2023/04/20 00:44:49;;;;;;;;;;;;;;;;;;5035206;28;19913;-23
2023/04/20 00:47:15;;;;;;;;;;;;;;;;;;5035768;28;19979;-26
2023/04/20 00:49:41;;;;;;;;;;;;;;;;;;5035832;28;19917;-27
2023/04/20 00:52:07;;;;;;;;;;;;;;;;;;5034558;28;19913;-23
2023/04/20 00:54:32;;;;;;;;;;;;;;;;;;5035629;28;20264;-26
2023/04/20 00:56:59;;;;;;;;;;;;;;;;;;5035555;28;19905;-29
2023/04/20 00:59:25;;;;;;;;;;;;;;;;;;5035538;28;20000;-31
2023/04/20 01:01:51;;;;;;;;;;;;;;;;;;5035719;28;19955;-27
2023/04/20 01:04:17;;;;;;;;;;;;;;;;;;5035235;28;19917;-25
2023/04/20 01:06:43;;;;;;;;;;;;;;;;;;5035681;28;19905;-25
2023/04/20 01:09:09;;;;;;;;;;;;;;;;;;5035419;28;20340;-31
2023/04/20 01:11:35;;;;;;;;;;;;;;;;;;5035644;28;19905;-26
2023/04/20 01:14:01;;;;;;;;;;;;;;;;;;5035182;28;20264;-27
2023/04/20 01:16:27;;;;;;;;;;;;;;;;;;5035481;28;19910;-24
2023/04/20 01:18:52;;;;;;;;;;;;;;;;;;5035219;28;19909;-27
2023/04/20 01:21:20;;;;;;;;;;;;;;;;;;5035621;28;19909;-28
2023/04/20 01:23:46;;;;;;;;;;;;;;;;;;5035370;28;19909;-25
2023/04/20 01:26:12;;;;;;;;;;;;;;;;;;5035387;28;20291;-29
2023/04/20 01:28:38;;;;;;;;;;;;;;;;;;5035098;28;20344;-31
2023/04/20 01:31:04;;;;;;;;;;;;;;;;;;5034994;28;19909;-30
2023/04/20 01:33:29;;;;;;;;;;;;;;;;;;5035064;28;20295;-27
2023/04/20 01:35:55;;;;;;;;;;;;;;;;;;5035189;28;19967;-26
2023/04/20 01:38:21;;;;;;;;;;;;;;;;;;5034894;28;19916;-27
2023/04/20 01:40:47;;;;;;;;;;;;;;;;;;5034809;28;19948;-27
2023/04/20 01:43:13;;;;;;;;;;;;;;;;;;5034813;28;20314;-26
2023/04/20 01:45:39;;;;;;;;;;;;;;;;;;5035049;28;20458;-30
2023/04/20 01:48:05;;;;;;;;;;;;;;;;;;5035019;28;20244;-24
2023/04/20 01:50:31;;;;;;;;;;;;;;;;;;5034749;28;20389;-25
2023/04/20 01:52:57;;;;;;;;;;;;;;;;;;5034566;28;19917;-27
2023/04/20 01:55:23;;;;;;;;;;;;;;;;;;5034900;28;20355;-23
2023/04/20 01:57:49;;;;;;;;;;;;;;;;;;5034619;28;19909;-28
2023/04/20 02:00:15;;;;;;;;;;;;;;;;;;5034888;28;20372;-25
2023/04/20 02:02:41;;;;;;;;;;;;;;;;;;5034620;28;20015;-25
2023/04/20 02:05:07;;;;;;;;;;;;;;;;;;5034481;28;19924;-26
2023/04/20 02:07:33;;;;;;;;;;;;;;;;;;5034588;28;19909;-32
2023/04/20 02:09:59;;;;;;;;;;;;;;;;;;5034588;28;20240;-28
2023/04/20 02:12:25;;;;;;;;;;;;;;;;;;5034384;28;19917;-29
2023/04/20 02:14:51;;;;;;;;;;;;;;;;;;5034734;28;19921;-27
2023/04/20 02:17:16;;;;;;;;;;;;;;;;;;5034424;28;20012;-27
2023/04/20 02:19:42;;;;;;;;;;;;;;;;;;5034468;28;19916;-29
2023/04/20 02:22:08;;;;;;;;;;;;;;;;;;5034362;28;20335;-28
2023/04/20 02:24:34;;;;;;;;;;;;;;;;;;5034660;28;19909;-25
2023/04/20 02:27:01;;;;;;;;;;;;;;;;;;5034615;28;20000;-24
2023/04/20 02:29:27;;;;;;;;;;;;;;;;;;5035375;28;19920;-26
2023/04/20 02:31:53;;;;;;;;;;;;;;;;;;5034167;28;19909;-29
2023/04/20 02:34:19;;;;;;;;;;;;;;;;;;5034318;28;20005;-28
2023/04/20 02:36:45;;;;;;;;;;;;;;;;;;5034341;28;19909;-27
2023/04/20 02:39:11;;;;;;;;;;;;;;;;;;5034252;28;20307;-29
2023/04/20 02:41:37;;;;;;;;;;;;;;;;;;5034554;28;19909;-27
2023/04/20 02:44:02;;;;;;;;;;;;;;;;;;5034159;28;19919;-29
2023/04/20 02:46:29;;;;;;;;;;;;;;;;;;5033186;28;19909;-31
2023/04/20 02:48:55;;;;;;;;;;;;;;;;;;5034160;28;20252;-29
2023/04/20 02:51:21;;;;;;;;;;;;;;;;;;5034420;28;19920;-30
2023/04/20 02:53:47;;;;;;;;;;;;;;;;;;5034054;28;19913;-27
2023/04/20 02:56:13;;;;;;;;;;;;;;;;;;5033156;28;20370;-24
2023/04/20 02:58:39;;;;;;;;;;;;;;;;;;5034389;28;20316;-27
2023/04/20 03:01:06;;;;;;;;;;;;;;;;;;5034108;28;19931;-23
2023/04/20 03:03:31;;;;;;;;;;;;;;;;;;5033861;28;19924;-24
2023/04/20 03:05:57;;;;;;;;;;;;;;;;;;5034275;28;20012;-26
2023/04/20 03:08:24;;;;;;;;;;;;;;;;;;5037233;28;19909;-24
2023/04/20 03:10:49;;;;;;;;;;;;;;;;;;5037664;28;19941;-24
2023/04/20 03:13:15;;;;;;;;;;;;;;;;;;5037538;28;19960;-25
2023/04/20 03:15:41;;;;;;;;;;;;;;;;;;5037813;28;19913;-28
2023/04/20 03:18:07;;;;;;;;;;;;;;;;;;5037520;28;20308;-26
2023/04/20 03:20:33;;;;;;;;;;;;;;;;;;5037389;28;19913;-26
2023/04/20 03:23:00;;;;;;;;;;;;;;;;;;5037357;28;19960;-27
2023/04/20 03:25:26;;;;;;;;;;;;;;;;;;5037692;28;19909;-25
2023/04/20 03:27:52;;;;;;;;;;;;;;;;;;5037579;28;19919;-26
2023/04/20 03:30:18;;;;;;;;;;;;;;;;;;5037185;28;20012;-25
2023/04/20 03:32:44;;;;;;;;;;;;;;;;;;5037029;28;19916;-29
2023/04/20 03:35:10;;;;;;;;;;;;;;;;;;5037711;28;20287;-26
2023/04/20 03:37:36;;;;;;;;;;;;;;;;;;5037023;28;19913;-29
2023/04/20 03:40:02;;;;;;;;;;;;;;;;;;5037242;28;20054;-33
2023/04/20 03:42:29;;;;;;;;;;;;;;;;;;5036809;28;19960;-24
2023/04/20 03:44:55;;;;;;;;;;;;;;;;;;5037114;28;19909;-28
2023/04/20 03:47:21;;;;;;;;;;;;;;;;;;5036812;28;20264;-27
2023/04/20 03:49:47;;;;;;;;;;;;;;;;;;5036828;28;20252;-32
2023/04/20 03:52:13;;;;;;;;;;;;;;;;;;5036546;28;19913;-24
2023/04/20 03:54:39;;;;;;;;;;;;;;;;;;5036655;28;19909;-30
2023/04/20 03:57:05;;;;;;;;;;;;;;;;;;5036605;28;20047;-29
2023/04/20 03:59:31;;;;;;;;;;;;;;;;;;5036519;28;20340;-29
2023/04/20 04:04:32;;;;;;;;;;;;;;;;;;5034544;28;20019;-19
2023/04/20 04:06:58;;;;;;;;;;;;;;;;;;5036464;28;19952;-22
2023/04/20 04:09:25;;;;;;;;;;;;;;;;;;5036451;28;19917;-22
2023/04/20 04:11:51;;;;;;;;;;;;;;;;;;5035114;28;19975;-21
2023/04/20 04:14:17;;;;;;;;;;;;;;;;;;5036190;28;20346;-22
2023/04/20 04:16:43;;;;;;;;;;;;;;;;;;5036054;28;19909;-22
2023/04/20 04:19:09;;;;;;;;;;;;;;;;;;5035070;28;19910;-23
2023/04/20 04:21:35;;;;;;;;;;;;;;;;;;5036036;28;19916;-21
2023/04/20 04:24:02;;;;;;;;;;;;;;;;;;5035773;28;19909;-22
2023/04/20 04:26:27;;;;;;;;;;;;;;;;;;5036108;28;19909;-21
2023/04/20 04:28:54;;;;;;;;;;;;;;;;;;5035962;28;19924;-20
2023/04/20 04:31:20;;;;;;;;;;;;;;;;;;5036163;28;20020;-24
2023/04/20 04:33:46;;;;;;;;;;;;;;;;;;5018103;28;19913;-22
2023/04/20 04:36:14;;;;;;;;;;;;;;;;;;5035670;28;19917;-21
2023/04/20 04:38:40;;;;;;;;;;;;;;;;;;5035789;28;19913;-22
2023/04/20 04:41:06;;;;;;;;;;;;;;;;;;5035797;28;19920;-22
2023/04/20 04:43:32;;;;;;;;;;;;;;;;;;5035613;28;19935;-22
2023/04/20 04:45:58;;;;;;;;;;;;;;;;;;5035778;28;19909;-21
2023/04/20 04:48:24;;;;;;;;;;;;;;;;;;5035539;28;20004;-21
2023/04/20 04:50:50;;;;;;;;;;;;;;;;;;5035545;28;19920;-23
2023/04/20 04:53:16;;;;;;;;;;;;;;;;;;5035488;28;20259;-21
2023/04/20 04:55:42;;;;;;;;;;;;;;;;;;5035707;28;19917;-21
2023/04/20 04:58:08;;;;;;;;;;;;;;;;;;5018127;28;20350;-21
2023/04/20 05:00:34;;;;;;;;;;;;;;;;;;5035513;28;20000;-22
2023/04/20 05:03:00;;;;;;;;;;;;;;;;;;5035000;28;19967;-22
2023/04/20 05:05:26;;;;;;;;;;;;;;;;;;5035169;28;20232;-21
2023/04/20 05:07:52;;;;;;;;;;;;;;;;;;5018286;28;19952;-22
2023/04/20 05:10:19;;;;;;;;;;;;;;;;;;5035120;28;19952;-21
2023/04/20 05:12:45;;;;;;;;;;;;;;;;;;5034885;28;19913;-21
2023/04/20 05:15:11;;;;;;;;;;;;;;;;;;5017506;28;19920;-21
2023/04/20 05:17:37;;;;;;;;;;;;;;;;;;5034971;28;19909;-21
2023/04/20 05:20:05;;;;;;;;;;;;;;;;;;5035303;28;19971;-22
2023/04/20 05:22:31;;;;;;;;;;;;;;;;;;5035154;28;19967;-21
2023/04/20 05:24:57;;;;;;;;;;;;;;;;;;5034975;28;20260;-21
2023/04/20 05:27:23;;;;;;;;;;;;;;;;;;5034791;28;19909;-21
2023/04/20 05:29:49;;;;;;;;;;;;;;;;;;5034634;28;20256;-22
2023/04/20 05:32:15;;;;;;;;;;;;;;;;;;5034642;28;20288;-20
2023/04/20 05:34:41;;;;;;;;;;;;;;;;;;5035019;28;20271;-21
2023/04/20 05:37:08;;;;;;;;;;;;;;;;;;5034619;28;19959;-21
2023/04/20 05:39:34;;;;;;;;;;;;;;;;;;5034717;28;19971;-21
2023/04/20 05:42:00;;;;;;;;;;;;;;;;;;5034472;28;19913;-21
2023/04/20 05:44:26;;;;;;;;;;;;;;;;;;5034675;28;20004;-22
2023/04/20 05:46:52;;;;;;;;;;;;;;;;;;5034309;28;19960;-21
2023/04/20 05:49:18;;;;;;;;;;;;;;;;;;5034511;28;19909;-22
2023/04/20 05:51:44;;;;;;;;;;;;;;;;;;5035003;28;19916;-21
2023/04/20 05:54:10;;;;;;;;;;;;;;;;;;5034300;28;19917;-20
2023/04/20 05:56:36;;;;;;;;;;;;;;;;;;5017571;28;19913;-22
2023/04/20 05:59:02;;;;;;;;;;;;;;;;;;5034527;28;20300;-21
2023/04/20 06:01:28;;;;;;;;;;;;;;;;;;5016780;28;19921;-21
2023/04/20 06:03:54;;;;;;;;;;;;;;;;;;5034104;28;19921;-23
2023/04/20 06:06:20;;;;;;;;;;;;;;;;;;5034309;28;19920;-23
2023/04/20 06:08:46;;;;;;;;;;;;;;;;;;5034660;28;19984;-21
2023/04/20 06:11:12;;;;;;;;;;;;;;;;;;5034287;28;19924;-21
2023/04/20 06:13:38;;;;;;;;;;;;;;;;;;5033887;28;19913;-20
2023/04/20 06:16:08;;;;;;;;;;;;;;;;;;5033823;28;19917;-21
2023/04/20 06:18:34;;;;;;;;;;;;;;;;;;5016853;28;20000;-22
2023/04/20 06:21:00;;;;;;;;;;;;;;;;;;5033829;28;19936;-21
2023/04/20 06:23:26;;;;;;;;;;;;;;;;;;5033626;28;19913;-23
2023/04/20 06:25:52;;;;;;;;;;;;;;;;;;5033972;28;19916;-21
2023/04/20 06:28:18;;;;;;;;;;;;;;;;;;5033726;28;19909;-21
2023/04/20 06:30:44;;;;;;;;;;;;;;;;;;5033770;28;19959;-22
2023/04/20 06:33:15;;;;;;;;;;;;;;;;;;5033829;28;19924;-21
2023/04/20 06:35:41;;;;;;;;;;;;;;;;;;5033964;28;19909;-22
2023/04/20 06:38:07;;;;;;;;;;;;;;;;;;5016248;28;19909;-22
2023/04/20 06:40:33;;;;;;;;;;;;;;;;;;5034004;28;19962;-22
2023/04/20 06:42:59;;;;;;;;;;;;;;;;;;5036612;28;19916;-22
2023/04/20 06:45:25;;;;;;;;;;;;;;;;;;5037950;28;19909;-20
2023/04/20 06:47:51;;;;;;;;;;;;;;;;;;5037594;28;19909;-22
2023/04/20 06:50:17;;;;;;;;;;;;;;;;;;5037759;28;19995;-22
2023/04/20 06:52:44;;;;;;;;;;;;;;;;;;5037594;28;19924;-20
2023/04/20 06:55:10;;;;;;;;;;;;;;;;;;5038060;28;19913;-24
2023/04/20 06:57:39;;;;;;;;;;;;;;;;;;5037852;28;20350;-22
2023/04/20 07:00:07;;;;;;;;;;;;;;;;;;5037494;28;19920;-21
2023/04/20 07:02:33;;;;;;;;;;;;;;;;;;5037305;28;20251;-23
2023/04/20 07:04:59;;;;;;;;;;;;;;;;;;5037573;28;19909;-20
2023/04/20 07:07:25;;;;;;;;;;;;;;;;;;5037205;28;19967;-21
2023/04/20 07:09:51;;;;;;;;;;;;;;;;;;5037409;28;20340;-22
2023/04/20 07:12:17;;;;;;;;;;;;;;;;;;5037079;28;19928;-22
2023/04/20 07:14:43;;;;;;;;;;;;;;;;;;5037273;28;20240;-21
2023/04/20 07:17:09;;;;;;;;;;;;;;;;;;5037146;28;19909;-20
2023/04/20 07:19:35;;;;;;;;;;;;;;;;;;5019365;28;19920;-21
2023/04/20 07:22:01;;;;;;;;;;;;;;;;;;5037103;28;20003;-22
2023/04/20 07:24:28;;;;;;;;;;;;;;;;;;5036948;28;19909;-20
2023/04/20 07:26:56;;;;;;;;;;;;;;;;;;5037038;28;20251;-20
2023/04/20 07:29:22;;;;;;;;;;;;;;;;;;5037166;28;19909;-20
2023/04/20 07:31:48;;;;;;;;;;;;;;;;;;5036928;28;19935;-21
2023/04/20 07:34:14;;;;;;;;;;;;;;;;;;5037140;28;19913;-21
2023/04/20 07:36:40;;;;;;;;;;;;;;;;;;5036998;28;19944;-21
2023/04/20 07:39:06;;;;;;;;;;;;;;;;;;5036765;28;19909;-21
2023/04/20 07:41:32;;;;;;;;;;;;;;;;;;5037026;28;19909;-23
2023/04/20 07:43:58;;;;;;;;;;;;;;;;;;5036780;28;19978;-22
2023/04/20 07:46:24;;;;;;;;;;;;;;;;;;5036630;28;19909;-20
2023/04/20 07:48:50;;;;;;;;;;;;;;;;;;5036219;28;19924;-21
2023/04/20 07:51:16;;;;;;;;;;;;;;;;;;5036295;28;19909;-21
2023/04/20 07:53:42;;;;;;;;;;;;;;;;;;5035986;28;19913;-22
2023/04/20 07:56:08;;;;;;;;;;;;;;;;;;5036404;28;19909;-22
2023/04/20 07:58:37;;;;;;;;;;;;;;;;;;5036315;28;19909;-22
2023/04/20 08:01:03;;;;;;;;;;;;;;;;;;5036612;28;19955;-21
2023/04/20 08:03:29;;;;;;;;;;;;;;;;;;5036253;28;19921;-21
2023/04/20 08:05:55;;;;;;;;;;;;;;;;;;5036511;28;20363;-22
2023/04/20 08:08:21;;;;;;;;;;;;;;;;;;5036408;28;19909;-21
2023/04/20 08:10:47;;;;;;;;;;;;;;;;;;5036088;28;19920;-23
2023/04/20 08:13:13;;;;;;;;;;;;;;;;;;5035999;28;20259;-20
2023/04/20 08:15:39;;;;;;;;;;;;;;;;;;5018564;28;19909;-21
2023/04/20 08:18:05;;;;;;;;;;;;;;;;;;5035978;28;19909;-22
2023/04/20 08:20:31;;;;;;;;;;;;;;;;;;5018239;28;19916;-21
2023/04/20 08:22:57;;;;;;;;;;;;;;;;;;5035585;28;20274;-23
2023/04/20 08:25:22;;;;;;;;;;;;;;;;;;5035859;28;20217;-21
2023/04/20 08:27:49;;;;;;;;;;;;;;;;;;5035932;28;19920;-21
2023/04/20 08:30:15;;;;;;;;;;;;;;;;;;5018070;28;19909;-20
2023/04/20 08:32:41;;;;;;;;;;;;;;;;;;5035850;28;20035;-20
2023/04/20 08:35:07;;;;;;;;;;;;;;;;;;5035811;28;19973;-21
2023/04/20 08:37:33;;;;;;;;;;;;;;;;;;5036015;28;19916;-22
2023/04/20 08:39:59;;;;;;;;;;;;;;;;;;5035863;28;19909;-22
2023/04/20 08:42:25;;;;;;;;;;;;;;;;;;5017729;28;19978;-22
2023/04/20 08:44:51;;;;;;;;;;;;;;;;;;5034664;28;19909;-22
2023/04/20 08:47:17;;;;;;;;;;;;;;;;;;5017104;28;19917;-22
2023/04/20 08:49:43;;;;;;;;;;;;;;;;;;5034589;28;19909;-21
2023/04/20 08:52:10;;;;;;;;;;;;;;;;;;5034388;28;19909;-21
2023/04/20 08:54:36;;;;;;;;;;;;;;;;;;5034436;28;19959;-20
2023/04/20 08:57:02;;;;;;;;;;;;;;;;;;5034369;28;19920;-22
2023/04/20 08:59:28;;;;;;;;;;;;;;;;;;5034312;28;19910;-21
2023/04/20 09:01:54;;;;;;;;;;;;;;;;;;5016706;28;19967;-22
2023/04/20 09:04:20;;;;;;;;;;;;;;;;;;5033560;28;19925;-22
2023/04/20 09:06:46;;;;;;;;;;;;;;;;;;5016705;28;19927;-21
2023/04/20 09:09:12;;;;;;;;;;;;;;;;;;5034214;28;20332;-21
2023/04/20 09:11:39;;;;;;;;;;;;;;;;;;5016662;28;20012;-21
2023/04/20 09:14:14;;;;;;;;;;;;;;;;;;5033877;28;19913;-20
2023/04/20 09:16:40;;;;;;;;;;;;;;;;;;5034282;28;20285;-23
2023/04/20 09:19:06;;;;;;;;;;;;;;;;;;5016342;28;19920;-21
2023/04/20 09:21:32;;;;;;;;;;;;;;;;;;5034448;28;19910;-21
2023/04/20 09:23:58;;;;;;;;;;;;;;;;;;5034283;28;19921;-21
2023/04/20 09:26:24;;;;;;;;;;;;;;;;;;5018027;28;19909;-23
2023/04/20 09:28:50;;;;;;;;;;;;;;;;;;5034767;28;19924;-22
2023/04/20 09:31:16;;;;;;;;;;;;;;;;;;5034791;28;19909;-21
2023/04/20 09:33:42;;;;;;;;;;;;;;;;;;5034515;28;19912;-22
2023/04/20 09:36:09;;;;;;;;;;;;;;;;;;5034504;28;19909;-21
2023/04/20 09:38:35;;;;;;;;;;;;;;;;;;5017128;28;19913;-23
2023/04/20 09:41:01;;;;;;;;;;;;;;;;;;5034557;28;19971;-22
2023/04/20 09:43:27;;;;;;;;;;;;;;;;;;5034787;28;19917;-20
2023/04/20 09:45:54;;;;;;;;;;;;;;;;;;5034770;28;20278;-21
2023/04/20 09:48:21;;;;;;;;;;;;;;;;;;5034486;28;19936;-22
2023/04/20 09:50:47;;;;;;;;;;;;;;;;;;5034572;28;19952;-20
2023/04/20 09:53:12;;;;;;;;;;;;;;;;;;5034159;28;19948;-24
2023/04/20 09:55:39;;;;;;;;;;;;;;;;;;5034650;28;19917;-21
2023/04/20 09:58:05;;;;;;;;;;;;;;;;;;5034420;28;19909;-22
2023/04/20 10:00:31;;;;;;;;;;;;;;;;;;5034595;28;20259;-21
2023/04/20 10:02:57;;;;;;;;;;;;;;;;;;5034062;28;20313;-21
2023/04/20 10:05:23;;;;;;;;;;;;;;;;;;5033980;28;20042;-21
2023/04/20 10:07:49;;;;;;;;;;;;;;;;;;5033923;28;20067;-21
2023/04/20 10:10:15;;;;;;;;;;;;;;;;;;5033970;28;19910;-21
2023/04/20 10:12:41;;;;;;;;;;;;;;;;;;5033844;28;19924;-22
2023/04/20 10:15:07;;;;;;;;;;;;;;;;;;5033992;28;19909;-23
2023/04/20 10:17:33;;;;;;;;;;;;;;;;;;5036007;28;19913;-21
2023/04/20 10:19:59;;;;;;;;;;;;;;;;;;5020372;28;19991;-21
2023/04/20 10:22:28;;;;;;;;;;;;;;;;;;5037642;28;19943;-21
2023/04/20 10:24:54;;;;;;;;;;;;;;;;;;5037504;28;20068;-21
2023/04/20 10:27:20;;;;;;;;;;;;;;;;;;5037666;28;20280;-21
2023/04/20 10:29:46;;;;;;;;;;;;;;;;;;5037604;28;19915;-21
2023/04/20 10:32:11;;;;;;;;;;;;;;;;;;5037372;28;20068;-21
2023/04/20 10:34:37;;;;;;;;;;;;;;;;;;5020082;28;19959;-22
2023/04/20 10:37:03;;;;;;;;;;;;;;;;;;5019939;28;19909;-22
2023/04/20 10:39:31;;;;;;;;;;;;;;;;;;5037842;28;19909;-21
2023/04/20 10:41:57;;;;;;;;;;;;;;;;;;5037704;28;20001;-22
2023/04/20 10:44:23;;;;;;;;;;;;;;;;;;5037537;28;19941;-22
2023/04/20 10:46:49;;;;;;;;;;;;;;;;;;5037641;28;19909;-20
2023/04/20 10:49:15;;;;;;;;;;;;;;;;;;5020016;28;19940;-21
2023/04/20 10:51:41;;;;;;;;;;;;;;;;;;5037508;28;19959;-21
2023/04/20 10:54:07;;;;;;;;;;;;;;;;;;5019657;28;20308;-21
2023/04/20 10:56:33;;;;;;;;;;;;;;;;;;5036916;28;19909;-21
2023/04/20 10:58:59;;;;;;;;;;;;;;;;;;5036693;28;19913;-21
2023/04/20 11:01:25;;;;;;;;;;;;;;;;;;5036485;28;19909;-21
2023/04/20 11:03:51;;;;;;;;;;;;;;;;;;5036347;28;19921;-21
2023/04/20 11:06:17;;;;;;;;;;;;;;;;;;5036687;28;19974;-21
2023/04/20 11:08:43;;;;;;;;;;;;;;;;;;5018947;28;20384;-22
2023/04/20 11:11:09;;;;;;;;;;;;;;;;;;5019403;28;19947;-22
2023/04/20 11:13:35;;;;;;;;;;;;;;;;;;5036072;28;19913;-22
2023/04/20 11:16:01;;;;;;;;;;;;;;;;;;5018725;28;19909;-22
2023/04/20 11:18:29;;;;;;;;;;;;;;;;;;5018613;28;19909;-20
2023/04/20 11:20:55;;;;;;;;;;;;;;;;;;5036469;28;20228;-21
2023/04/20 11:23:21;;;;;;;;;;;;;;;;;;5036722;28;19992;-22
2023/04/20 11:25:47;;;;;;;;;;;;;;;;;;5036747;28;20313;-22
2023/04/20 11:28:13;;;;;;;;;;;;;;;;;;5036324;28;19909;-20
2023/04/20 11:30:40;;;;;;;;;;;;;;;;;;5036864;28;19909;-21
2023/04/20 11:33:06;;;;;;;;;;;;;;;;;;5036483;28;19913;-21
2023/04/20 11:35:32;;;;;;;;;;;;;;;;;;5036876;28;20036;-22
2023/04/20 11:37:58;;;;;;;;;;;;;;;;;;5036658;28;19909;-22
2023/04/20 11:40:24;;;;;;;;;;;;;;;;;;5036770;28;19920;-22
2023/04/20 11:42:50;;;;;;;;;;;;;;;;;;5036897;28;19920;-21
2023/04/20 11:45:16;;;;;;;;;;;;;;;;;;5036726;28;19952;-21
2023/04/20 11:47:44;;;;;;;;;;;;;;;;;;5036913;28;19949;-20
2023/04/20 11:50:11;;;;;;;;;;;;;;;;;;5036302;28;19913;-21
2023/04/20 11:52:36;;;;;;;;;;;;;;;;;;5036148;28;20022;-27
2023/04/20 11:55:02;;;;;;;;;;;;;;;;;;5036520;28;19960;-21
2023/04/20 11:57:28;;;;;;;;;;;;;;;;;;5036630;28;19909;-22
2023/04/20 11:59:54;;;;;;;;;;;;;;;;;;5036427;28;20009;-23
2023/04/20 12:02:21;;;;;;;;;;;;;;;;;;5018665;28;19913;-21
2023/04/20 12:04:47;;;;;;;;;;;;;;;;;;5036317;28;19952;-22
2023/04/20 12:07:13;;;;;;;;;;;;;;;;;;5036773;28;19909;-21
2023/04/20 12:09:40;;;;;;;;;;;;;;;;;;5036518;28;19980;-21
2023/04/20 12:12:06;;;;;;;;;;;;;;;;;;5018674;28;20018;-22
2023/04/20 12:14:35;;;;;;;;;;;;;;;;;;5036011;28;19912;-20
2023/04/20 12:17:01;;;;;;;;;;;;;;;;;;5036522;28;20350;-22
2023/04/20 12:19:27;;;;;;;;;;;;;;;;;;5035885;28;20000;-22
2023/04/20 12:21:53;;;;;;;;;;;;;;;;;;5035947;28;20316;-21
2023/04/20 12:24:19;;;;;;;;;;;;;;;;;;5035967;28;19909;-20
2023/04/20 12:26:45;;;;;;;;;;;;;;;;;;5035981;28;19909;-21
2023/04/20 12:29:11;;;;;;;;;;;;;;;;;;5035960;28;20270;-21
2023/04/20 12:31:37;;;;;;;;;;;;;;;;;;5018372;28;19920;-21
2023/04/20 12:34:03;;;;;;;;;;;;;;;;;;5018096;28;20004;-21
2023/04/20 12:36:31;;;;;;;;;;;;;;;;;;5035442;28;19935;-21
2023/04/20 12:38:57;;;;;;;;;;;;;;;;;;5017600;28;19910;-22
2023/04/20 12:41:23;;;;;;;;;;;;;;;;;;5035538;28;19920;-21
2023/04/20 12:43:49;;;;;;;;;;;;;;;;;;5035207;28;20336;-22
2023/04/20 12:46:15;;;;;;;;;;;;;;;;;;5035277;28;19909;-21
2023/04/20 12:48:41;;;;;;;;;;;;;;;;;;5017737;28;19909;-22
2023/04/20 12:51:08;;;;;;;;;;;;;;;;;;5035852;28;19936;-22
2023/04/20 12:53:34;;;;;;;;;;;;;;;;;;5035163;28;20004;-23
2023/04/20 12:56:00;;;;;;;;;;;;;;;;;;5035390;28;19909;-21
2023/04/20 12:58:26;;;;;;;;;;;;;;;;;;5017343;28;20390;-21
2023/04/20 13:00:52;;;;;;;;;;;;;;;;;;5035105;28;19909;-21
2023/04/20 13:03:18;;;;;;;;;;;;;;;;;;5034822;28;19927;-20
2023/04/20 13:05:44;;;;;;;;;;;;;;;;;;5035573;28;20326;-21
2023/04/20 13:08:10;;;;;;;;;;;;;;;;;;5035465;28;19999;-23
2023/04/20 13:10:36;;;;;;;;;;;;;;;;;;5018380;28;20354;-23
2023/04/20 13:13:02;;;;;;;;;;;;;;;;;;5034622;28;19952;-22
2023/04/20 13:15:28;;;;;;;;;;;;;;;;;;5035330;28;19944;-22
2023/04/20 13:17:54;;;;;;;;;;;;;;;;;;5035081;28;19909;-22
2023/04/20 13:20:20;;;;;;;;;;;;;;;;;;5035048;28;20251;-20
2023/04/20 13:22:46;;;;;;;;;;;;;;;;;;5034906;28;19909;-22
2023/04/20 13:25:12;;;;;;;;;;;;;;;;;;5017438;28;19909;-22
2023/04/20 13:27:38;;;;;;;;;;;;;;;;;;5034997;28;19916;-21
2023/04/20 13:30:05;;;;;;;;;;;;;;;;;;5034972;28;19987;-22
2023/04/20 13:32:31;;;;;;;;;;;;;;;;;;5034801;28;19924;-21
2023/04/20 13:34:57;;;;;;;;;;;;;;;;;;5034989;28;19949;-21
2023/04/20 13:37:23;;;;;;;;;;;;;;;;;;5034897;28;19932;-21
2023/04/20 13:39:49;;;;;;;;;;;;;;;;;;5035016;28;20295;-22
2023/04/20 13:42:15;;;;;;;;;;;;;;;;;;5034438;28;19910;-21
2023/04/20 13:44:41;;;;;;;;;;;;;;;;;;5034587;28;19917;-20
2023/04/20 13:47:07;;;;;;;;;;;;;;;;;;5017287;28;19909;-23
2023/04/20 13:49:33;;;;;;;;;;;;;;;;;;5034516;28;19909;-21
2023/04/20 13:51:59;;;;;;;;;;;;;;;;;;5034285;28;19920;-21
2023/04/20 13:54:25;;;;;;;;;;;;;;;;;;5034159;28;20059;-20
2023/04/20 13:56:51;;;;;;;;;;;;;;;;;;5034379;28;19991;-20
2023/04/20 13:59:17;;;;;;;;;;;;;;;;;;5034545;28;19928;-22
2023/04/20 14:01:43;;;;;;;;;;;;;;;;;;5034382;28;19920;-22
2023/04/20 14:04:09;;;;;;;;;;;;;;;;;;5034984;28;19921;-21
2023/04/20 14:06:35;;;;;;;;;;;;;;;;;;5034475;28;19919;-22
2023/04/20 14:09:01;;;;;;;;;;;;;;;;;;5016679;28;20003;-21
2023/04/20 14:11:27;;;;;;;;;;;;;;;;;;5034202;28;19916;-21
2023/04/20 14:13:53;;;;;;;;;;;;;;;;;;5034191;28;19917;-20
2023/04/20 14:16:21;;;;;;;;;;;;;;;;;;5034464;28;19909;-20
2023/04/20 14:18:47;;;;;;;;;;;;;;;;;;5034581;28;19919;-21
2023/04/20 14:21:13;;;;;;;;;;;;;;;;;;5034314;28;19917;-20
2023/04/20 14:23:39;;;;;;;;;;;;;;;;;;5034134;28;19917;-21
2023/04/20 14:26:05;;;;;;;;;;;;;;;;;;5016807;28;19977;-22
2023/04/20 14:28:31;;;;;;;;;;;;;;;;;;5034147;28;20071;-21
2023/04/20 14:30:57;;;;;;;;;;;;;;;;;;5034248;28;19910;-21
2023/04/20 14:33:23;;;;;;;;;;;;;;;;;;5034124;28;19920;-20
2023/04/20 14:35:49;;;;;;;;;;;;;;;;;;5033964;28;19909;-20
2023/04/20 14:38:15;;;;;;;;;;;;;;;;;;5034169;28;19916;-21
2023/04/20 14:40:41;;;;;;;;;;;;;;;;;;5034001;28;19913;-21
2023/04/20 14:43:07;;;;;;;;;;;;;;;;;;5033683;28;19910;-23
2023/04/20 14:45:33;;;;;;;;;;;;;;;;;;5033726;28;19920;-21
2023/04/20 14:47:59;;;;;;;;;;;;;;;;;;5033774;28;20222;-22
2023/04/20 14:50:28;;;;;;;;;;;;;;;;;;5033684;28;19909;-21
2023/04/20 14:52:54;;;;;;;;;;;;;;;;;;5033738;28;19913;-22
2023/04/20 14:55:24;;;;;;;;;;;;;;;;;;5016178;28;20244;-23
2023/04/20 14:57:50;;;;;;;;;;;;;;;;;;5033881;28;19952;-21
2023/04/20 15:00:16;;;;;;;;;;;;;;;;;;5034090;28;20348;-20
2023/04/20 15:02:42;;;;;;;;;;;;;;;;;;5016451;28;19996;-20
2023/04/20 15:05:08;;;;;;;;;;;;;;;;;;5037629;28;19910;-22
2023/04/20 15:07:34;;;;;;;;;;;;;;;;;;5037127;28;19937;-21
2023/04/20 15:10:00;;;;;;;;;;;;;;;;;;5037220;28;19967;-21
2023/04/20 15:12:28;;;;;;;;;;;;;;;;;;5019356;28;20207;-21
2023/04/20 15:14:54;;;;;;;;;;;;;;;;;;5037110;28;20251;-22
2023/04/20 15:17:20;;;;;;;;;;;;;;;;;;5036428;28;19944;-22
2023/04/20 15:19:45;;;;;;;;;;;;;;;;;;5018715;28;19909;-22
2023/04/20 15:22:12;;;;;;;;;;;;;;;;;;5036386;28;19936;-21
2023/04/20 15:24:38;;;;;;;;;;;;;;;;;;5036490;28;19916;-20
2023/04/20 15:27:04;;;;;;;;;;;;;;;;;;5036289;28;19971;-22
2023/04/20 15:29:30;;;;;;;;;;;;;;;;;;5036262;28;19917;-22
2023/04/20 15:31:56;;;;;;;;;;;;;;;;;;5036033;28;19948;-23
2023/04/20 15:34:22;;;;;;;;;;;;;;;;;;5035983;28;19924;-22
2023/04/20 15:36:48;;;;;;;;;;;;;;;;;;5036167;28;19909;-21
2023/04/20 15:39:14;;;;;;;;;;;;;;;;;;5036183;28;19909;-22
2023/04/20 15:41:40;;;;;;;;;;;;;;;;;;5036635;28;20002;-21
2023/04/20 15:44:06;;;;;;;;;;;;;;;;;;5037563;28;20212;-22
2023/04/20 15:46:32;;;;;;;;;;;;;;;;;;5036731;28;19916;-20
2023/04/20 15:48:58;;;;;;;;;;;;;;;;;;5037061;28;20351;-24
2023/04/20 15:51:24;;;;;;;;;;;;;;;;;;5036651;28;19909;-20
2023/04/20 15:53:50;;;;;;;;;;;;;;;;;;5036316;28;19925;-21
2023/04/20 15:56:17;;;;;;;;;;;;;;;;;;5036620;28;20336;-22
2023/04/20 15:58:43;;;;;;;;;;;;;;;;;;5036713;28;19920;-23
2023/04/20 16:01:09;;;;;;;;;;;;;;;;;;5036465;28;19909;-21
2023/04/20 16:03:35;;;;;;;;;;;;;;;;;;5036167;28;19928;-20
2023/04/20 16:06:02;;;;;;;;;;;;;;;;;;5036238;28;19913;-20
2023/04/20 16:08:28;;;;;;;;;;;;;;;;;;5036450;28;19909;-21
2023/04/20 16:10:54;;;;;;;;;;;;;;;;;;5018793;28;20211;-21
2023/04/20 16:13:20;;;;;;;;;;;;;;;;;;5036302;28;19995;-21
2023/04/20 16:15:46;;;;;;;;;;;;;;;;;;5036912;28;19917;-21
2023/04/20 16:18:12;;;;;;;;;;;;;;;;;;5036174;28;19921;-22
2023/04/20 16:20:38;;;;;;;;;;;;;;;;;;5036871;28;19920;-21
2023/04/20 16:23:04;;;;;;;;;;;;;;;;;;5036178;28;19992;-20
2023/04/20 16:25:32;;;;;;;;;;;;;;;;;;5036071;28;19963;-21
2023/04/20 16:27:58;;;;;;;;;;;;;;;;;;5036365;28;19909;-21
2023/04/20 16:30:24;;;;;;;;;;;;;;;;;;5036195;28;19960;-21
2023/04/20 16:32:50;;;;;;;;;;;;;;;;;;5036028;28;19936;-22
2023/04/20 16:35:16;;;;;;;;;;;;;;;;;;5036010;28;19999;-22
2023/04/20 16:37:42;;;;;;;;;;;;;;;;;;5035718;28;19917;-22
2023/04/20 16:40:08;;;;;;;;;;;;;;;;;;5036018;28;19964;-21